createdAt,value
2018-11-01T00:02:22.373Z,41.60
2018-11-01T00:04:48.434Z,42.04
2018-11-01T00:07:14.416Z,42.05
2018-11-01T00:09:40.472Z,42.28
2018-11-01T00:12:06.479Z,42.46
2018-11-01T00:14:32.487Z,42.30
2018-11-01T00:16:58.473Z,42.16
2018-11-01T00:19:24.468Z,42.50
2018-11-01T00:21:50.452Z,41.75
2018-11-01T00:24:16.480Z,42.22
2018-11-01T00:26:42.467Z,42.30
2018-11-01T00:29:08.449Z,42.77
2018-11-01T00:31:34.477Z,42.69
2018-11-01T00:34:00.562Z,43.14
2018-11-01T00:36:26.528Z,43.56
2018-11-01T00:38:52.519Z,43.63
2018-11-01T00:41:18.489Z,43.71
2018-11-01T00:43:44.473Z,42.85
2018-11-01T00:46:10.464Z,42.86
2018-11-01T00:48:36.442Z,41.90
2018-11-01T00:51:02.420Z,42.40
2018-11-01T00:53:28.411Z,42.49
2018-11-01T00:55:54.423Z,42.39
2018-11-01T00:58:20.404Z,42.20
2018-11-01T01:00:46.367Z,43.08
2018-11-01T01:03:12.389Z,43.21
2018-11-01T01:05:38.332Z,42.85
2018-11-01T01:08:04.332Z,43.00
2018-11-01T01:10:30.314Z,42.44
2018-11-01T01:12:56.271Z,42.61
2018-11-01T01:15:22.239Z,42.66
2018-11-01T01:17:48.187Z,42.63
2018-11-01T01:20:14.176Z,43.01
2018-11-01T01:22:40.157Z,43.13
2018-11-01T01:25:06.141Z,43.90
2018-11-01T01:27:32.101Z,43.74
2018-11-01T01:29:58.103Z,44.05
2018-11-01T01:32:24.043Z,43.56
2018-11-01T01:34:50.041Z,43.08
2018-11-01T01:37:15.992Z,42.68
2018-11-01T01:39:41.985Z,42.88
2018-11-01T01:42:07.929Z,43.38
2018-11-01T01:44:33.910Z,43.15
2018-11-01T01:46:59.851Z,44.01
2018-11-01T01:49:25.820Z,43.54
2018-11-01T01:51:51.798Z,43.10
2018-11-01T01:54:17.734Z,42.90
2018-11-01T01:56:43.733Z,43.19
2018-11-01T01:59:09.707Z,42.93
2018-11-01T02:01:35.789Z,43.47
2018-11-01T02:04:01.747Z,43.04
2018-11-01T02:06:27.741Z,43.12
2018-11-01T02:08:53.692Z,43.76
2018-11-01T02:11:19.667Z,43.59
2018-11-01T02:13:45.661Z,43.85
2018-11-01T02:16:11.677Z,44.43
2018-11-01T02:18:37.684Z,43.56
2018-11-01T02:21:03.651Z,44.20
2018-11-01T02:23:29.644Z,44.17
2018-11-01T02:25:55.611Z,43.92
2018-11-01T02:28:21.574Z,43.67
2018-11-01T02:30:47.818Z,43.45
2018-11-01T02:33:13.809Z,43.04
2018-11-01T02:35:39.795Z,42.84
2018-11-01T02:38:05.847Z,43.43
2018-11-01T02:40:31.807Z,43.94
2018-11-01T02:42:57.759Z,43.39
2018-11-01T02:45:23.733Z,44.13
2018-11-01T02:47:49.689Z,44.71
2018-11-01T02:50:15.639Z,43.94
2018-11-01T02:52:41.656Z,44.72
2018-11-01T02:55:07.656Z,44.72
2018-11-01T02:57:33.647Z,44.15
2018-11-01T02:59:59.686Z,45.07
2018-11-01T03:02:25.657Z,44.83
2018-11-01T03:04:51.651Z,44.93
2018-11-01T03:07:17.639Z,44.97
2018-11-01T03:09:43.652Z,44.83
2018-11-01T03:12:09.609Z,44.38
2018-11-01T03:14:35.637Z,44.43
2018-11-01T03:17:01.708Z,43.51
2018-11-01T03:19:27.678Z,44.28
2018-11-01T03:21:53.658Z,44.06
2018-11-01T03:24:19.631Z,44.02
2018-11-01T03:26:46.158Z,44.25
2018-11-01T03:29:12.153Z,44.20
2018-11-01T03:31:38.193Z,43.79
2018-11-01T03:34:04.181Z,44.48
2018-11-01T03:36:30.142Z,44.27
2018-11-01T03:38:56.122Z,43.87
2018-11-01T03:41:22.096Z,44.82
2018-11-01T03:43:48.053Z,43.85
2018-11-01T03:46:14.038Z,43.12
2018-11-01T03:48:39.983Z,43.19
2018-11-01T03:51:05.992Z,43.29
2018-11-01T03:53:32.046Z,43.19
2018-11-01T03:55:57.970Z,43.82
2018-11-01T04:00:59.065Z,44.04
2018-11-01T04:03:25.085Z,44.42
2018-11-01T04:05:51.068Z,43.76
2018-11-01T04:08:17.026Z,43.77
2018-11-01T04:10:42.997Z,43.39
2018-11-01T04:13:08.947Z,43.69
2018-11-01T04:15:34.951Z,43.66
2018-11-01T04:18:00.951Z,44.26
2018-11-01T04:20:26.962Z,44.01
2018-11-01T04:22:52.950Z,43.81
2018-11-01T04:25:18.882Z,43.42
2018-11-01T04:27:44.852Z,44.04
2018-11-01T04:30:10.811Z,43.67
2018-11-01T04:32:36.813Z,44.01
2018-11-01T04:35:02.803Z,43.54
2018-11-01T04:37:28.796Z,44.01
2018-11-01T04:39:54.758Z,43.49
2018-11-01T04:42:20.725Z,44.04
2018-11-01T04:44:46.729Z,44.51
2018-11-01T04:47:12.790Z,44.19
2018-11-01T04:49:38.745Z,44.85
2018-11-01T04:52:04.737Z,43.98
2018-11-01T04:54:30.708Z,44.44
2018-11-01T04:56:56.738Z,44.28
2018-11-01T04:59:22.750Z,44.46
2018-11-01T05:01:48.744Z,43.70
2018-11-01T05:04:14.715Z,44.09
2018-11-01T05:06:40.715Z,43.61
2018-11-01T05:09:06.685Z,43.57
2018-11-01T05:11:32.672Z,43.81
2018-11-01T05:13:58.624Z,43.35
2018-11-01T05:16:24.623Z,44.00
2018-11-01T05:18:50.625Z,43.48
2018-11-01T05:21:16.608Z,44.08
2018-11-01T05:23:42.582Z,43.75
2018-11-01T05:26:08.580Z,44.24
2018-11-01T05:28:34.538Z,44.07
2018-11-01T05:31:00.562Z,44.36
2018-11-01T05:33:26.577Z,44.29
2018-11-01T05:35:52.597Z,43.83
2018-11-01T05:38:18.621Z,43.93
2018-11-01T05:40:44.649Z,44.58
2018-11-01T05:43:10.674Z,44.79
2018-11-01T05:45:36.658Z,43.94
2018-11-01T05:48:02.656Z,44.19
2018-11-01T05:50:28.685Z,44.75
2018-11-01T05:52:54.727Z,44.20
2018-11-01T05:55:20.676Z,44.26
2018-11-01T05:57:46.626Z,44.98
2018-11-01T06:00:12.584Z,44.27
2018-11-01T06:02:38.591Z,44.38
2018-11-01T06:05:04.581Z,44.50
2018-11-01T06:07:30.589Z,45.07
2018-11-01T06:09:56.579Z,46.02
2018-11-01T06:12:22.605Z,46.36
2018-11-01T06:14:48.592Z,45.88
2018-11-01T06:17:14.558Z,45.68
2018-11-01T06:19:40.515Z,46.00
2018-11-01T06:22:06.529Z,46.24
2018-11-01T06:24:32.534Z,46.16
2018-11-01T06:26:58.552Z,45.57
2018-11-01T06:29:24.522Z,45.88
2018-11-01T06:31:50.496Z,45.69
2018-11-01T06:34:16.448Z,45.37
2018-11-01T06:36:42.497Z,44.49
2018-11-01T06:39:08.527Z,45.15
2018-11-01T06:41:34.491Z,44.73
2018-11-01T06:44:00.474Z,44.88
2018-11-01T06:46:26.424Z,44.50
2018-11-01T06:48:52.435Z,44.66
2018-11-01T06:51:18.447Z,44.70
2018-11-01T06:53:44.485Z,44.78
2018-11-01T06:56:10.547Z,44.42
2018-11-01T06:58:36.704Z,44.72
2018-11-01T07:01:02.532Z,45.04
2018-11-01T07:03:28.508Z,44.48
2018-11-01T07:05:54.531Z,44.32
2018-11-01T07:08:20.571Z,44.27
2018-11-01T07:10:46.572Z,44.41
2018-11-01T07:13:12.584Z,44.42
2018-11-01T07:15:38.556Z,43.30
2018-11-01T07:18:04.539Z,43.99
2018-11-01T07:20:30.502Z,44.00
2018-11-01T07:22:56.510Z,43.17
2018-11-01T07:25:22.614Z,43.03
2018-11-01T07:27:48.497Z,43.23
2018-11-01T07:30:14.491Z,43.30
2018-11-01T07:32:40.598Z,42.29
2018-11-01T07:35:06.494Z,42.16
2018-11-01T07:37:32.454Z,42.77
2018-11-01T07:39:58.485Z,42.76
2018-11-01T07:42:24.459Z,42.79
2018-11-01T07:44:50.500Z,42.71
2018-11-01T07:47:17.368Z,42.15
2018-11-01T07:49:43.351Z,42.37
2018-11-01T07:52:09.332Z,41.66
2018-11-01T07:54:35.681Z,42.17
2018-11-01T07:57:01.657Z,40.78
2018-11-01T07:59:27.661Z,40.93
2018-11-01T08:01:53.616Z,41.18
2018-11-01T08:04:19.596Z,41.04
2018-11-01T08:06:45.564Z,40.98
2018-11-01T08:09:11.535Z,40.61
2018-11-01T08:11:38.534Z,40.40
2018-11-01T08:14:04.465Z,40.38
2018-11-01T08:16:30.468Z,39.35
2018-11-01T08:18:56.453Z,39.85
2018-11-01T08:21:22.559Z,39.79
2018-11-01T08:23:48.428Z,40.30
2018-11-01T08:26:14.381Z,39.94
2018-11-01T08:28:40.366Z,40.18
2018-11-01T08:38:40.714Z,40.10
2018-11-01T08:41:06.746Z,40.20
2018-11-01T08:43:32.757Z,39.26
2018-11-01T08:45:58.730Z,39.31
2018-11-01T08:48:24.716Z,39.80
2018-11-01T08:50:50.707Z,39.75
2018-11-01T08:53:16.701Z,39.25
2018-11-01T08:55:42.705Z,39.66
2018-11-01T08:58:08.679Z,39.27
2018-11-01T09:00:34.636Z,39.54
2018-11-01T09:03:00.807Z,38.64
2018-11-01T09:05:26.820Z,37.81
2018-11-01T09:07:52.871Z,37.80
2018-11-01T09:10:18.911Z,37.97
2018-11-01T09:12:44.955Z,38.79
2018-11-01T09:15:10.929Z,38.61
2018-11-01T09:17:36.896Z,38.02
2018-11-01T09:20:02.928Z,38.02
2018-11-01T09:22:28.901Z,37.60
2018-11-01T09:24:54.949Z,36.81
2018-11-01T09:27:21.015Z,36.87
2018-11-01T09:29:46.954Z,36.74
2018-11-01T09:32:12.925Z,37.31
2018-11-01T09:34:38.909Z,37.32
2018-11-01T09:37:04.958Z,37.62
2018-11-01T09:39:30.932Z,37.90
2018-11-01T09:41:56.940Z,37.99
2018-11-01T09:44:22.939Z,38.03
2018-11-01T09:46:49.271Z,37.89
2018-11-01T09:49:14.919Z,37.83
2018-11-01T09:51:40.940Z,37.41
2018-11-01T09:54:06.900Z,38.14
2018-11-01T09:56:33.701Z,38.13
2018-11-01T10:11:35.895Z,37.75
2018-11-01T10:14:01.943Z,37.32
2018-11-01T10:16:28.104Z,37.33
2018-11-01T10:21:25.368Z,37.02
2018-11-01T10:23:51.338Z,36.92
2018-11-01T10:26:17.321Z,36.49
2018-11-01T10:28:43.303Z,37.08
2018-11-01T10:31:09.329Z,37.04
2018-11-01T10:33:35.289Z,37.42
2018-11-01T10:36:01.312Z,37.32
2018-11-01T10:38:27.272Z,37.32
2018-11-01T10:40:53.326Z,37.26
2018-11-01T10:43:19.300Z,37.21
2018-11-01T10:45:45.253Z,37.16
2018-11-01T10:48:11.217Z,36.51
2018-11-01T10:50:37.180Z,36.72
2018-11-01T10:53:03.166Z,37.47
2018-11-01T10:55:29.113Z,37.23
2018-11-01T10:57:55.117Z,37.34
2018-11-01T11:00:21.261Z,37.24
2018-11-01T11:02:51.653Z,37.32
2018-11-01T11:05:17.629Z,36.82
2018-11-01T11:07:43.629Z,36.53
2018-11-01T11:10:09.595Z,36.49
2018-11-01T11:12:35.574Z,36.04
2018-11-01T11:15:01.535Z,36.75
2018-11-01T11:17:27.595Z,36.91
2018-11-01T11:19:53.651Z,36.87
2018-11-01T11:22:20.235Z,36.46
2018-11-01T11:24:46.358Z,36.55
2018-11-01T11:27:12.354Z,35.94
2018-11-01T11:29:42.912Z,36.09
2018-11-01T11:32:08.893Z,36.21
2018-11-01T11:34:34.842Z,36.04
2018-11-01T11:37:00.809Z,36.45
2018-11-01T11:39:26.816Z,37.25
2018-11-01T11:41:52.842Z,37.46
2018-11-01T11:44:18.821Z,37.38
2018-11-01T11:46:44.841Z,36.67
2018-11-01T11:49:10.786Z,37.39
2018-11-01T11:51:36.932Z,36.74
2018-11-01T11:54:02.843Z,37.17
2018-11-01T11:56:28.823Z,36.86
2018-11-01T11:58:54.809Z,37.25
2018-11-01T12:01:20.757Z,37.22
2018-11-01T12:03:46.735Z,36.64
2018-11-01T12:06:12.828Z,37.14
2018-11-01T12:08:38.652Z,37.10
2018-11-01T12:11:08.557Z,36.33
2018-11-01T12:13:34.558Z,36.56
2018-11-01T12:16:00.526Z,36.23
2018-11-01T12:18:26.501Z,36.32
2018-11-01T12:20:52.453Z,36.27
2018-11-01T12:23:18.428Z,36.07
2018-11-01T12:25:45.223Z,36.22
2018-11-01T12:28:11.237Z,36.29
2018-11-01T12:30:37.195Z,36.15
2018-11-01T12:33:03.175Z,36.17
2018-11-01T12:35:29.189Z,36.71
2018-11-01T12:37:55.193Z,37.09
2018-11-01T12:40:21.137Z,37.26
2018-11-01T12:42:47.134Z,37.95
2018-11-01T12:45:13.162Z,37.25
2018-11-01T12:47:39.208Z,37.95
2018-11-01T12:50:09.156Z,38.02
2018-11-01T12:52:34.944Z,37.43
2018-11-01T12:55:00.989Z,37.21
2018-11-01T12:57:27.033Z,37.22
2018-11-01T12:59:52.990Z,37.65
2018-11-01T13:02:19.029Z,37.11
2018-11-01T13:04:45.015Z,37.48
2018-11-01T13:07:11.017Z,37.32
2018-11-01T13:09:37.577Z,37.63
2018-11-01T13:12:03.623Z,36.99
2018-11-01T13:14:29.582Z,37.72
2018-11-01T13:16:55.597Z,37.79
2018-11-01T13:19:21.574Z,37.68
2018-11-01T13:21:47.537Z,37.49
2018-11-01T13:24:13.589Z,37.50
2018-11-01T13:26:39.626Z,38.13
2018-11-01T13:29:05.634Z,37.95
2018-11-01T13:31:31.597Z,37.52
2018-11-01T13:33:57.592Z,37.14
2018-11-01T13:36:23.562Z,38.03
2018-11-01T13:38:50.295Z,37.36
2018-11-01T13:41:16.612Z,37.32
2018-11-01T13:43:42.301Z,37.88
2018-11-01T13:46:08.363Z,37.77
2018-11-01T13:48:34.381Z,37.49
2018-11-01T13:51:00.407Z,36.96
2018-11-01T13:53:26.424Z,37.18
2018-11-01T13:55:52.453Z,37.03
2018-11-01T13:58:18.467Z,37.28
2018-11-01T14:00:44.468Z,37.49
2018-11-01T14:03:10.470Z,37.78
2018-11-01T14:05:36.522Z,37.26
2018-11-01T14:08:02.598Z,37.21
2018-11-01T14:10:28.557Z,38.14
2018-11-01T14:12:54.551Z,38.03
2018-11-01T14:15:20.845Z,38.42
2018-11-01T14:17:46.509Z,38.44
2018-11-01T14:20:12.602Z,37.86
2018-11-01T14:22:38.668Z,37.93
2018-11-01T14:25:04.746Z,37.81
2018-11-01T14:27:30.886Z,38.58
2018-11-01T14:29:56.889Z,38.21
2018-11-01T14:32:22.869Z,37.57
2018-11-01T14:34:49.873Z,38.05
2018-11-01T14:37:15.863Z,37.94
2018-11-01T14:39:41.893Z,37.41
2018-11-01T14:42:07.904Z,37.53
2018-11-01T14:44:34.046Z,38.06
2018-11-01T14:47:02.042Z,38.30
2018-11-01T14:49:28.204Z,37.42
2018-11-01T14:51:54.444Z,37.24
2018-11-01T14:54:21.273Z,37.69
2018-11-01T14:56:47.335Z,37.27
2018-11-01T14:59:13.768Z,37.72
2018-11-01T15:01:38.212Z,37.49
2018-11-01T15:04:04.210Z,37.48
2018-11-01T15:06:30.236Z,37.78
2018-11-01T15:08:57.562Z,37.71
2018-11-01T15:11:25.427Z,37.92
2018-11-01T15:13:53.809Z,37.83
2018-11-01T15:16:21.842Z,38.17
2018-11-01T15:18:47.861Z,38.44
2018-11-01T15:21:13.849Z,38.49
2018-11-01T15:23:39.856Z,37.75
2018-11-01T15:26:05.925Z,38.09
2018-11-01T15:28:31.918Z,38.22
2018-11-01T15:30:57.920Z,38.58
2018-11-01T15:33:24.007Z,38.35
2018-11-01T15:35:49.872Z,38.74
2018-11-01T15:38:16.541Z,38.35
2018-11-01T15:40:45.659Z,38.51
2018-11-01T15:43:11.691Z,38.43
2018-11-01T15:45:37.659Z,38.08
2018-11-01T15:48:03.632Z,38.44
2018-11-01T15:50:29.618Z,38.85
2018-11-01T15:52:56.253Z,39.01
2018-11-01T15:55:22.219Z,38.98
2018-11-01T15:57:50.294Z,38.87
2018-11-01T16:00:16.268Z,39.12
2018-11-01T16:02:42.303Z,38.81
2018-11-01T16:05:08.257Z,38.89
2018-11-01T16:07:39.387Z,39.58
2018-11-01T16:10:05.471Z,39.23
2018-11-01T16:12:31.375Z,39.01
2018-11-01T16:14:57.357Z,39.52
2018-11-01T16:17:23.328Z,39.26
2018-11-01T16:19:49.442Z,39.55
2018-11-01T16:22:15.464Z,39.27
2018-11-01T16:24:41.424Z,40.09
2018-11-01T16:27:07.429Z,39.53
2018-11-01T16:29:33.418Z,39.37
2018-11-01T16:31:59.434Z,39.45
2018-11-01T16:34:25.405Z,40.04
2018-11-01T16:36:51.449Z,40.07
2018-11-01T16:39:17.416Z,39.93
2018-11-01T16:41:43.367Z,39.77
2018-11-01T16:44:09.376Z,39.51
2018-11-01T16:46:35.368Z,39.63
2018-11-01T16:49:01.314Z,39.91
2018-11-01T16:51:27.325Z,39.80
2018-11-01T16:53:53.277Z,40.29
2018-11-01T16:56:19.265Z,40.08
2018-11-01T16:58:45.262Z,40.18
2018-11-01T17:01:11.361Z,41.01
2018-11-01T17:03:37.358Z,41.06
2018-11-01T17:06:03.337Z,40.50
2018-11-01T17:08:30.335Z,40.91
2018-11-01T17:10:57.245Z,41.03
2018-11-01T17:13:23.303Z,40.80
2018-11-01T17:15:49.283Z,41.41
2018-11-01T17:18:15.302Z,41.73
2018-11-01T17:20:41.417Z,41.31
2018-11-01T17:23:07.442Z,41.77
2018-11-01T17:25:33.494Z,41.84
2018-11-01T17:27:59.585Z,41.84
2018-11-01T17:30:25.679Z,41.04
2018-11-01T17:35:25.644Z,41.35
2018-11-01T17:37:51.665Z,41.46
2018-11-01T17:40:17.706Z,41.68
2018-11-01T17:42:44.330Z,42.37
2018-11-01T17:45:10.397Z,42.34
2018-11-01T17:47:36.314Z,41.40
2018-11-01T17:50:02.287Z,41.29
2018-11-01T17:52:28.299Z,41.55
2018-11-01T17:54:58.183Z,42.06
2018-11-01T17:57:24.252Z,41.86
2018-11-01T17:59:50.249Z,41.33
2018-11-01T18:02:17.390Z,41.14
2018-11-01T18:04:43.288Z,41.12
2018-11-01T18:07:09.284Z,41.86
2018-11-01T18:09:35.269Z,41.67
2018-11-01T18:12:01.237Z,41.17
2018-11-01T18:14:27.266Z,41.84
2018-11-01T18:16:53.284Z,42.01
2018-11-01T18:19:19.510Z,42.14
2018-11-01T18:21:45.503Z,41.69
2018-11-01T18:24:11.458Z,41.69
2018-11-01T18:26:37.457Z,41.46
2018-11-01T18:29:03.597Z,41.28
2018-11-01T18:31:29.601Z,41.19
2018-11-01T18:33:55.574Z,41.54
2018-11-01T18:36:21.620Z,41.69
2018-11-01T18:38:47.574Z,41.11
2018-11-01T18:41:13.609Z,41.17
2018-11-01T18:43:39.619Z,41.60
2018-11-01T18:46:05.586Z,41.41
2018-11-01T18:48:31.633Z,41.78
2018-11-01T18:50:57.574Z,41.72
2018-11-01T18:53:23.693Z,41.58
2018-11-01T18:55:49.800Z,42.23
2018-11-01T18:58:15.810Z,41.66
2018-11-01T19:00:42.907Z,41.65
2018-11-01T19:05:42.321Z,42.30
2018-11-01T19:08:08.301Z,42.40
2018-11-01T19:10:34.285Z,42.27
2018-11-01T19:13:00.294Z,41.85
2018-11-01T19:15:26.274Z,42.41
2018-11-01T19:17:52.270Z,42.28
2018-11-01T19:20:18.253Z,42.48
2018-11-01T19:22:44.368Z,41.86
2018-11-01T19:25:10.391Z,42.45
2018-11-01T19:27:36.572Z,41.95
2018-11-01T19:30:02.747Z,41.93
2018-11-01T19:32:28.708Z,42.45
2018-11-01T19:34:54.747Z,42.69
2018-11-01T19:37:20.734Z,41.89
2018-11-01T19:39:46.726Z,41.95
2018-11-01T19:42:12.720Z,42.10
2018-11-01T19:44:38.755Z,42.49
2018-11-01T19:47:04.758Z,42.58
2018-11-01T19:49:30.806Z,41.83
2018-11-01T19:51:56.717Z,42.04
2018-11-01T19:54:23.450Z,42.69
2018-11-01T19:56:49.381Z,42.50
2018-11-01T19:59:15.530Z,42.59
2018-11-01T20:01:41.505Z,43.12
2018-11-01T20:04:07.485Z,43.00
2018-11-01T20:06:33.458Z,42.96
2018-11-01T20:08:59.595Z,43.55
2018-11-01T20:11:25.443Z,43.40
2018-11-01T20:13:52.006Z,43.51
2018-11-01T20:16:17.995Z,44.33
2018-11-01T20:18:44.056Z,43.63
2018-11-01T20:21:10.034Z,43.76
2018-11-01T20:23:36.001Z,44.23
2018-11-01T20:26:01.974Z,43.76
2018-11-01T20:28:29.033Z,44.46
2018-11-01T20:30:54.989Z,44.43
2018-11-01T20:33:20.973Z,44.34
2018-11-01T20:35:46.933Z,43.96
2018-11-01T20:38:12.992Z,44.34
2018-11-01T20:40:38.902Z,43.96
2018-11-01T20:43:04.869Z,44.11
2018-11-01T20:45:30.866Z,44.17
2018-11-01T20:47:56.851Z,44.81
2018-11-01T20:50:22.989Z,44.85
2018-11-01T20:52:48.882Z,44.66
2018-11-01T20:55:14.871Z,44.00
2018-11-01T20:57:40.946Z,43.86
2018-11-01T21:00:06.933Z,43.96
2018-11-01T21:02:32.997Z,44.34
2018-11-01T21:04:59.093Z,43.68
2018-11-01T21:07:24.981Z,43.83
2018-11-01T21:09:50.952Z,44.47
2018-11-01T21:12:16.972Z,44.21
2018-11-01T21:14:42.972Z,43.86
2018-11-01T21:17:08.953Z,44.37
2018-11-01T21:19:34.917Z,44.62
2018-11-01T21:22:00.903Z,44.81
2018-11-01T21:24:26.889Z,44.49
2018-11-01T21:26:52.870Z,44.83
2018-11-01T21:29:18.912Z,44.65
2018-11-01T21:31:44.843Z,44.65
2018-11-01T21:34:12.114Z,44.49
2018-11-01T21:36:39.172Z,45.35
2018-11-01T21:39:05.137Z,45.55
2018-11-01T21:41:31.117Z,45.70
2018-11-01T21:43:57.148Z,45.19
2018-11-01T21:46:25.194Z,45.16
2018-11-01T21:48:51.166Z,44.99
2018-11-01T21:51:17.210Z,44.66
2018-11-01T21:53:43.311Z,45.10
2018-11-01T21:56:09.180Z,44.40
2018-11-01T21:58:35.151Z,45.01
2018-11-01T22:01:01.116Z,44.84
2018-11-01T22:03:27.078Z,45.00
2018-11-01T22:05:53.044Z,44.96
2018-11-01T22:08:19.087Z,45.11
2018-11-01T22:10:45.062Z,44.50
2018-11-01T22:13:11.001Z,44.77
2018-11-01T22:15:36.978Z,44.15
2018-11-01T22:18:03.018Z,44.59
2018-11-01T22:20:28.987Z,44.31
2018-11-01T22:22:54.962Z,43.93
2018-11-01T22:25:20.937Z,44.08
2018-11-01T22:27:46.942Z,44.17
2018-11-01T22:30:12.916Z,44.37
2018-11-01T22:32:38.934Z,44.15
2018-11-01T22:35:04.896Z,44.06
2018-11-01T22:37:30.857Z,44.14
2018-11-01T22:39:56.873Z,45.18
2018-11-01T22:42:22.847Z,45.24
2018-11-01T22:44:48.848Z,45.24
2018-11-01T22:47:14.870Z,45.15
2018-11-01T22:49:40.823Z,45.19
2018-11-01T22:52:06.789Z,44.77
2018-11-01T22:54:32.742Z,44.54
2018-11-01T22:56:58.755Z,45.09
2018-11-01T22:59:24.725Z,44.35
2018-11-01T23:01:50.719Z,44.08
2018-11-01T23:04:16.693Z,44.24
2018-11-01T23:06:42.661Z,45.20
2018-11-01T23:09:08.672Z,44.41
2018-11-01T23:11:34.647Z,44.88
2018-11-01T23:14:00.645Z,44.82
2018-11-01T23:16:26.595Z,45.12
2018-11-01T23:18:52.591Z,44.59
2018-11-01T23:21:18.576Z,44.51
2018-11-01T23:23:44.528Z,45.28
2018-11-01T23:26:10.496Z,45.13
2018-11-01T23:28:36.453Z,44.42
2018-11-01T23:31:02.413Z,45.05
2018-11-01T23:33:28.450Z,45.05
2018-11-01T23:35:54.456Z,45.08
2018-11-01T23:38:20.416Z,46.05
2018-11-01T23:40:46.398Z,45.61
2018-11-01T23:43:12.383Z,45.20
2018-11-01T23:45:38.328Z,46.17
2018-11-01T23:48:04.334Z,45.53
2018-11-01T23:50:30.325Z,44.68
2018-11-01T23:52:56.294Z,45.62
2018-11-01T23:55:22.274Z,45.41
2018-11-01T23:57:48.242Z,45.27
